Terminal Aerodrome Forecast
Issued by NWS Louisville, KY

Home | Current Version | Previous Version | Text Only | Print | Product List | Glossary On
Versions: 1 2 3 4 5 6 7 8 9 10 11 12 13 14 15 16 17 18
703
FTUS43 KLMK 141122
TAFLEX
TAF
KLEX 141122Z 1412/1512 VRB03KT P6SM FEW250
     FM150400 11006KT P6SM BKN080
     FM150900 16006KT P6SM VCSH OVC035=

USA.gov is the U.S. government's official web portal to all federal, state and local government web resources and services.